Ana Sayfa
METAR-TAF:

METAR-TAF

Havaalanları :

Trang, Tayland

Enlem: 07-31N, Boylam: 099-37E, yükseklik: 14 m

Güncel hava durumu gözlemi

Rapor saat 21:00 UTC de 1 saat ve 21 dakika önce yapıldı.
Rüzgar kuzeydoğudan 6 kt
Sıcaklık 25°C
Nem 79%
Basınç 1009 hPa
Görüş mesafesi 10 km veya daha fazla
2000 ft yükseklikte az bulutlu

METAR: VTST 092100Z 04006KT 9999 FEW020 25/21 Q1009 NOSIG

Saat: 05:21 (22:21 UTC)

Tahmin

Rapor saat 17:00 UTC de 5 saat ve 21 dakika önce yapıldı.
Ayın 09'si saat 18 UTC'den ayın 10'si saat 18 UTC'ye kadar geçerli Tahmin
Rüzgar doğu/kuzeydoğudan 10 kt
Görüş mesafesi 10 km veya daha fazla
2000 ft yükseklikte az bulutlu

TAF: VTST 091700Z 0918/1018 06010KT 9999 FEW020

4.000'den fazla havaalanı için hava durumu gözlemleri ve tahminleri (METAR ve TAF raporları).

Kullanılabilir istasyonlar harita üzerinde sarı ve kırmızı noktalarla gösterilir.

İstasyonun adını görmek için fareyi noktanın üzerinde gezdirin.

Sonrasında hava gözlem ve tahminlerini görmek için tıklayın.

Haritayı değiştirmek için: yaklaştırmak için siyah artı işaretli yeşil düğmeye ve uzaklaştırmak için de eksi işaretli düğmeye hızla tıklayın; bitişik haritalar için yeşil okları kullanın.


METAR-TAF: